Time;durP1;ratioP1;P1;durP2;ratioP2;P2;SDS_P1;SDS_P2;PMS_P1;PMS_P2;Temp;Humidity;BMP_temperature;BMP_pressure;BME280_temperature;BME280_humidity;BME280_pressure;Samples;Min_cycle;Max_cycle;Signal;HPM_P1;HPM_P2
2022/12/30 00:02:21;;;;;;;126.95;118.70;;;;;;;5.02;100.00;100766.78;10622030;27;20111;-66
2022/12/30 00:07:23;;;;;;;62.22;58.60;;;;;;;4.95;100.00;100776.41;10622033;27;20262;-65
2022/12/30 00:33:55;;;;;;;54.30;51.13;;;;;;;4.68;100.00;100807.06;10620581;28;20051;-64
2022/12/30 00:38:57;;;;;;;78.35;73.13;;;;;;;4.65;100.00;100804.53;10621084;28;20101;-64
2022/12/30 00:43:59;;;;;;;;;;;;;;;4.56;100.00;100808.16;10620567;28;20399;-64
2022/12/30 00:59:41;;;;;;;69.63;65.95;;;;;;;4.47;100.00;100804.00;10628428;27;20134;-64
2022/12/30 01:04:44;;;;;;;77.15;72.78;;;;;;;4.48;100.00;100799.69;10628059;27;20063;-64
2022/12/30 01:09:46;;;;;;;115.30;108.82;;;;;;;4.47;100.00;100813.47;10628392;27;20079;-66
2022/12/30 01:14:51;;;;;;;84.47;79.20;;;;;;;4.41;100.00;100816.19;10628064;27;20520;-65
2022/12/30 01:19:55;;;;;;;585.67;331.00;;;;;;;4.47;100.00;100827.25;10625383;27;20139;-65
2022/12/30 01:24:56;;;;;;;102.65;95.95;;;;;;;4.39;100.00;100813.63;10627317;27;20103;-66
2022/12/30 01:29:58;;;;;;;95.37;90.50;;;;;;;4.55;100.00;100814.19;10627633;27;20078;-67
2022/12/30 01:35:03;;;;;;;129.82;121.93;;;;;;;4.67;100.00;100827.78;10627591;27;20698;-66
2022/12/30 01:40:06;;;;;;;122.57;115.80;;;;;;;4.73;100.00;100838.03;10626785;27;20092;-66
2022/12/30 01:45:19;;;;;;;103.13;96.97;;;;;;;4.56;100.00;100844.34;10626932;27;20065;-66
2022/12/30 01:50:33;;;;;;;574.25;320.35;;;;;;;4.58;100.00;100840.00;10623859;27;20085;-65
2022/12/30 01:55:41;;;;;;;1999.90;999.90;;;;;;;4.51;100.00;100859.06;10626413;27;20511;-67
2022/12/30 02:00:43;;;;;;;592.10;337.35;;;;;;;4.57;100.00;100863.28;10625602;27;20065;-66
2022/12/30 02:05:48;;;;;;;1528.60;777.00;;;;;;;4.46;100.00;100861.75;10625984;27;20047;-66
2022/12/30 02:10:55;;;;;;;598.83;343.75;;;;;;;4.37;100.00;100846.38;10625630;27;20454;-66
2022/12/30 02:16:22;;;;;;;591.35;336.38;;;;;;;4.47;100.00;100852.25;10625356;27;20569;-65
2022/12/30 02:21:44;;;;;;;575.13;321.10;;;;;;;4.40;100.00;100830.81;10622827;27;20051;-65
2022/12/30 02:27:15;;;;;;;113.55;107.03;;;;;;;4.33;100.00;100832.66;10624979;27;20399;-65
2022/12/30 02:32:26;;;;;;;122.90;116.10;;;;;;;4.30;100.00;100830.13;10624407;27;20081;-63
2022/12/30 02:37:41;;;;;;;83.07;78.70;;;;;;;4.28;100.00;100820.69;10624742;27;20061;-65
2022/12/30 02:48:16;;;;;;;1999.90;999.90;;;;;;;4.00;100.00;100811.63;10621745;27;20058;-66
2022/12/30 02:53:26;;;;;;;1999.90;999.90;;;;;;;3.97;100.00;100803.97;10623804;27;20106;-65
2022/12/30 02:58:33;;;;;;;578.80;324.30;;;;;;;3.99;100.00;100794.44;10623964;27;20108;-67
2022/12/30 03:03:58;;;;;;;113.55;107.57;;;;;;;3.88;100.00;100780.84;10623625;27;20058;-66
2022/12/30 03:09:11;;;;;;;294.23;271.38;;;;;;;3.93;100.00;100794.56;10623417;27;20047;-68
2022/12/30 03:14:25;;;;;;;1999.90;999.90;;;;;;;3.77;100.00;100786.19;10622535;27;20047;-65
2022/12/30 03:19:37;;;;;;;619.80;363.15;;;;;;;3.62;100.00;100785.53;10620143;27;20077;-65
2022/12/30 03:30:04;;;;;;;1999.90;999.90;;;;;;;3.41;100.00;100792.69;10622838;27;20469;-66
2022/12/30 03:35:09;;;;;;;1999.90;999.90;;;;;;;3.41;100.00;100784.09;10621883;27;20460;-65
2022/12/30 03:40:18;;;;;;;1999.90;999.90;;;;;;;3.28;100.00;100776.53;10622086;27;20050;-67
2022/12/30 03:45:20;;;;;;;1999.90;999.90;;;;;;;3.27;100.00;100777.41;10621751;27;20053;-65
2022/12/30 03:50:23;;;;;;;1999.90;999.90;;;;;;;3.30;100.00;100785.09;10619817;27;20098;-67
2022/12/30 03:55:25;;;;;;;105.60;99.72;;;;;;;3.22;100.00;100790.34;10621308;27;20047;-66
2022/12/30 04:00:27;;;;;;;734.90;397.70;;;;;;;3.23;100.00;100791.22;10621282;27;20100;-67
2022/12/30 04:05:30;;;;;;;1999.90;999.90;;;;;;;3.26;100.00;100798.91;10621245;27;20352;-68
2022/12/30 04:10:31;;;;;;;1999.90;999.90;;;;;;;3.28;100.00;100799.72;10621181;27;20079;-66
2022/12/30 04:15:33;;;;;;;1533.82;782.13;;;;;;;3.30;100.00;100800.59;10620860;27;20102;-66
2022/12/30 04:20:36;;;;;;;1999.90;999.90;;;;;;;3.35;100.00;100805.66;10617791;27;20411;-65
2022/12/30 04:25:38;;;;;;;1999.90;999.90;;;;;;;3.30;100.00;100817.78;10620502;27;20260;-66
2022/12/30 04:30:40;;;;;;;125.30;118.53;;;;;;;3.25;100.00;100806.69;10621347;28;20106;-67
2022/12/30 04:35:43;;;;;;;113.65;107.82;;;;;;;3.23;100.00;100804.09;10620836;28;20308;-66
2022/12/30 04:40:44;;;;;;;1083.25;578.22;;;;;;;3.31;100.00;100802.28;10620654;28;20053;-69
2022/12/30 04:45:46;;;;;;;1999.90;999.90;;;;;;;3.24;100.00;100804.97;10620163;28;20053;-66
2022/12/30 04:50:50;;;;;;;1999.90;999.90;;;;;;;3.28;100.00;100797.16;10618311;28;20070;-66
2022/12/30 04:55:53;;;;;;;1999.90;999.90;;;;;;;3.20;100.00;100809.31;10619910;28;20068;-67
2022/12/30 05:00:55;;;;;;;1999.90;999.90;;;;;;;3.23;100.00;100801.53;10620067;28;20144;-66
2022/12/30 05:05:58;;;;;;;1999.90;999.90;;;;;;;3.37;100.00;100798.78;10619743;28;20468;-68
2022/12/30 05:10:59;;;;;;;1999.90;999.90;;;;;;;3.32;100.00;100785.94;10619560;27;20537;-68
2022/12/30 05:16:01;;;;;;;1999.90;999.90;;;;;;;3.23;100.00;100788.63;10620129;27;20057;-68
2022/12/30 05:21:05;;;;;;;1999.90;999.90;;;;;;;3.27;100.00;100774.81;10616643;28;20335;-68
2022/12/30 05:26:15;;;;;;;1999.90;999.90;;;;;;;3.28;100.00;100786.00;10619318;27;20392;-69
2022/12/30 05:31:19;;;;;;;1999.90;999.90;;;;;;;3.37;100.00;100780.72;10619596;27;20082;-68
2022/12/30 05:36:22;;;;;;;1999.90;999.90;;;;;;;3.34;100.00;100786.78;10625685;27;20058;-67
2022/12/30 05:41:24;;;;;;;1999.90;999.90;;;;;;;3.28;100.00;100786.84;10626867;27;20059;-66
2022/12/30 05:46:26;;;;;;;1999.90;999.90;;;;;;;3.32;100.00;100787.66;10626465;27;20069;-68
2022/12/30 05:51:29;;;;;;;1999.90;999.90;;;;;;;3.27;100.00;100784.28;10624063;27;20077;-66
2022/12/30 05:56:31;;;;;;;1999.90;999.90;;;;;;;3.25;100.00;100780.88;10626400;27;20653;-67
2022/12/30 06:01:32;;;;;;;1999.90;999.90;;;;;;;3.24;100.00;100772.28;10626201;27;20055;-66
2022/12/30 06:06:35;;;;;;;1999.90;999.90;;;;;;;3.24;100.00;100784.34;10625723;27;20510;-66
2022/12/30 06:11:38;;;;;;;1999.90;999.90;;;;;;;3.30;100.00;100781.66;10625398;27;20131;-66
2022/12/30 06:16:40;;;;;;;1999.90;999.90;;;;;;;3.31;100.00;100771.31;10625955;27;20064;-71
2022/12/30 06:21:43;;;;;;;1999.90;999.90;;;;;;;3.31;100.00;100766.16;10622640;27;20146;-66
2022/12/30 06:26:44;;;;;;;1999.90;999.90;;;;;;;3.33;100.00;100761.00;10625126;27;20310;-68
2022/12/30 06:31:46;;;;;;;195.40;182.57;;;;;;;3.39;100.00;100752.31;10624577;27;20441;-68
2022/12/30 06:36:49;;;;;;;1999.90;999.90;;;;;;;3.41;100.00;100750.56;10624518;27;20305;-65
2022/12/30 06:41:51;;;;;;;1999.90;999.90;;;;;;;3.44;100.00;100745.34;10624629;27;20482;-66
2022/12/30 06:46:52;;;;;;;1999.90;999.90;;;;;;;3.43;100.00;100738.50;10624391;27;20057;-66
2022/12/30 06:51:55;;;;;;;1999.90;999.90;;;;;;;3.36;100.00;100730.00;10622188;27;20075;-66
2022/12/30 06:56:57;;;;;;;1999.90;999.90;;;;;;;3.42;100.00;100711.84;10623649;27;20466;-67
2022/12/30 07:01:59;;;;;;;1999.90;999.90;;;;;;;3.32;100.00;100695.63;10623992;27;20099;-67
2022/12/30 07:07:02;;;;;;;1524.82;773.63;;;;;;;3.42;100.00;100698.94;10623569;27;20388;-68
2022/12/30 07:12:05;;;;;;;1999.90;999.90;;;;;;;3.43;100.00;100674.88;10622955;27;20409;-66
2022/12/30 07:17:06;;;;;;;1999.90;999.90;;;;;;;3.44;100.00;100673.13;10620462;27;20466;-67
2022/12/30 07:22:10;;;;;;;1999.90;999.90;;;;;;;3.47;100.00;100675.66;10622830;27;20089;-66
2022/12/30 07:27:12;;;;;;;1999.90;999.90;;;;;;;3.66;100.00;100678.78;10622820;27;20057;-68
2022/12/30 07:32:14;;;;;;;1999.90;999.90;;;;;;;3.82;100.00;100663.91;10622657;27;20073;-67
2022/12/30 07:37:17;;;;;;;1999.90;999.90;;;;;;;3.82;100.00;100653.56;10622499;27;20055;-67
2022/12/30 07:42:19;;;;;;;1999.90;999.90;;;;;;;3.81;100.00;100644.13;10621960;27;20057;-65
2022/12/30 07:47:21;;;;;;;1999.90;999.90;;;;;;;3.99;100.00;100632.63;10619535;27;20069;-67
2022/12/30 07:52:24;;;;;;;1999.90;999.90;;;;;;;4.07;100.00;100616.97;10622058;27;20516;-68
2022/12/30 07:57:25;;;;;;;1999.90;999.90;;;;;;;4.11;100.00;100610.88;10620711;27;20467;-68
2022/12/30 08:02:27;;;;;;;1999.90;999.90;;;;;;;4.15;100.00;100595.31;10621178;27;20047;-68
2022/12/30 08:07:30;;;;;;;1999.90;999.90;;;;;;;4.24;100.00;100597.72;10621656;27;20099;-67
2022/12/30 08:12:35;;;;;;;1999.90;999.90;;;;;;;4.40;100.00;100585.34;10620683;27;20039;-66
2022/12/30 08:17:36;;;;;;;1999.90;999.90;;;;;;;4.56;100.00;100577.25;10618294;27;20058;-66
2022/12/30 08:22:40;;;;;;;1999.90;999.90;;;;;;;4.57;100.00;100574.66;10620344;27;20095;-64
2022/12/30 08:27:41;;;;;;;1999.90;999.90;;;;;;;4.66;100.00;100567.56;10620632;27;20087;-64
2022/12/30 08:32:43;;;;;;;1999.90;999.90;;;;;;;4.86;100.00;100567.97;10620395;27;20131;-67
2022/12/30 08:37:46;;;;;;;1999.90;999.90;;;;;;;4.89;100.00;100560.16;10620101;28;20301;-64
2022/12/30 08:42:48;;;;;;;1999.90;999.90;;;;;;;4.95;100.00;100553.13;10620198;28;20063;-65
2022/12/30 08:47:49;;;;;;;1999.90;999.90;;;;;;;5.04;100.00;100537.41;10617774;28;20055;-66
2022/12/30 08:52:53;;;;;;;153.55;144.55;;;;;;;5.17;100.00;100526.75;10620993;28;20070;-66
2022/12/30 08:57:54;;;;;;;1999.90;999.90;;;;;;;5.24;100.00;100515.34;10620281;28;20047;-65
2022/12/30 09:02:56;;;;;;;1999.90;999.90;;;;;;;5.43;100.00;100502.78;10620363;28;20051;-64
2022/12/30 09:07:59;;;;;;;1999.90;999.90;;;;;;;5.58;100.00;100501.50;10621430;27;20063;-65
2022/12/30 09:13:02;;;;;;;1999.90;999.90;;;;;;;5.77;100.00;100480.31;10627932;27;20074;-65
2022/12/30 09:18:04;;;;;;;1999.90;999.90;;;;;;;5.82;100.00;100462.91;10625554;27;20464;-67
2022/12/30 09:23:07;;;;;;;1999.90;999.90;;;;;;;5.84;100.00;100461.13;10627190;27;20144;-64
2022/12/30 09:28:09;;;;;;;1999.90;999.90;;;;;;;6.02;100.00;100461.47;10627831;27;20061;-65
2022/12/30 09:33:11;;;;;;;1999.90;999.90;;;;;;;6.15;100.00;100449.88;10627465;27;20082;-68
2022/12/30 09:38:14;;;;;;;1999.90;999.90;;;;;;;6.36;100.00;100447.50;10626872;27;20132;-66
2022/12/30 09:43:26;;;;;;;1999.90;999.90;;;;;;;6.29;100.00;100446.00;10626934;27;20150;-67
2022/12/30 09:48:38;;;;;;;176.25;159.82;;;;;;;6.48;100.00;100415.19;10624090;27;20067;-68
2022/12/30 09:53:49;;;;;;;1999.90;999.90;;;;;;;6.51;100.00;100414.25;10627043;27;20074;-67
2022/12/30 09:58:55;;;;;;;1999.90;999.90;;;;;;;6.61;100.00;100405.28;10626462;27;20274;-68
2022/12/30 10:04:00;;;;;;;1999.90;999.90;;;;;;;6.68;100.00;100379.97;10625830;27;20521;-68
2022/12/30 10:09:48;;;;;;;129.15;118.82;;;;;;;6.76;100.00;100377.97;10625729;27;20509;-67
2022/12/30 10:15:06;;;;;;;1999.90;999.90;;;;;;;6.78;100.00;100370.13;10625818;27;20039;-63
2022/12/30 10:20:34;;;;;;;1999.90;999.90;;;;;;;6.87;100.00;100341.28;10622502;27;20418;-65
2022/12/30 10:25:45;;;;;;;1999.90;999.90;;;;;;;6.94;100.00;100311.63;10625448;27;20073;-64
2022/12/30 10:30:49;;;;;;;1999.90;999.90;;;;;;;6.98;100.00;100293.38;10625016;27;20100;-67
2022/12/30 10:36:02;;;;;;;1999.90;999.90;;;;;;;7.07;100.00;100282.66;10624592;27;20106;-67
2022/12/30 10:41:22;;;;;;;1999.90;999.90;;;;;;;7.05;100.00;100274.09;10623950;27;20106;-67
2022/12/30 10:46:48;;;;;;;1999.90;999.90;;;;;;;7.11;100.00;100266.06;10624459;27;20104;-66
2022/12/30 10:51:50;;;;;;;1999.90;999.90;;;;;;;7.24;100.00;100231.84;10621778;27;20440;-66
2022/12/30 10:56:53;;;;;;;1999.90;999.90;;;;;;;7.31;100.00;100220.34;10623591;27;20051;-65
2022/12/30 11:02:12;;;;;;;1999.90;999.90;;;;;;;7.30;100.00;100200.47;10623899;27;20049;-66
2022/12/30 11:07:16;;;;;;;1999.90;999.90;;;;;;;7.34;100.00;100183.88;10623261;27;20550;-65
2022/12/30 11:17:54;;;;;;;1999.90;999.90;;;;;;;7.48;100.00;100152.16;10620456;27;20054;-67
2022/12/30 11:23:00;;;;;;;1999.90;999.90;;;;;;;7.54;100.00;100130.31;10615614;27;20047;-67
2022/12/30 11:28:06;;;;;;;1999.90;999.90;;;;;;;7.55;100.00;100108.63;10600225;27;20043;-65
2022/12/30 11:33:25;;;;;;;1999.90;999.90;;;;;;;7.53;100.00;100082.72;10621884;27;20070;-65
2022/12/30 11:38:34;;;;;;;1999.90;999.90;;;;;;;7.63;100.00;100062.41;10622373;27;20043;-68
2022/12/30 11:43:38;;;;;;;1999.90;999.90;;;;;;;7.72;100.00;100062.03;10621854;27;20059;-64
2022/12/30 11:48:46;;;;;;;1999.90;999.90;;;;;;;7.84;100.00;100044.22;10618983;27;20455;-67
2022/12/30 11:53:50;;;;;;;1999.90;999.90;;;;;;;7.84;100.00;100018.25;10623172;27;20398;-67
2022/12/30 11:58:55;;;;;;;1999.90;999.90;;;;;;;7.96;100.00;99990.84;10623666;27;20065;-67
2022/12/30 12:03:59;;;;;;;1516.40;765.35;;;;;;;7.95;100.00;99963.19;10623068;27;20047;-66
2022/12/30 12:09:14;;;;;;;1999.90;999.90;;;;;;;8.06;100.00;99950.56;10623553;27;20051;-66
2022/12/30 12:14:26;;;;;;;1999.90;999.90;;;;;;;8.04;100.00;99951.53;10623186;27;20043;-64
2022/12/30 12:19:42;;;;;;;1999.90;999.90;;;;;;;8.04;100.00;99943.75;10620396;27;20051;-65
2022/12/30 12:24:55;;;;;;;1999.90;999.90;;;;;;;8.06;100.00;99923.72;10622916;27;20054;-64
2022/12/30 12:29:58;;;;;;;;;;;;;;;7.93;100.00;99913.91;10622951;27;20051;-66
2022/12/30 12:35:14;;;;;;;1999.90;999.90;;;;;;;7.78;100.00;99917.19;10622144;28;20006;-68
2022/12/30 12:40:51;;;;;;;1999.90;999.90;;;;;;;7.71;100.00;99896.72;10621024;28;20070;-65
2022/12/30 12:46:27;;;;;;;1999.90;999.90;;;;;;;7.53;100.00;99880.19;10627661;27;20080;-66
2022/12/30 12:51:50;;;;;;;1999.90;999.90;;;;;;;7.37;100.00;99868.81;10627157;27;20065;-66
2022/12/30 12:57:07;;;;;;;1999.90;999.90;;;;;;;7.28;100.00;99854.50;10629597;27;20051;-66
2022/12/30 13:02:54;;;;;;;1999.90;999.90;;;;;;;7.24;100.00;99827.00;10629719;27;20043;-65
2022/12/30 13:08:07;;;;;;;1999.90;999.90;;;;;;;7.26;100.00;99800.09;10592966;27;20047;-68
2022/12/30 13:13:20;;;;;;;1999.90;999.90;;;;;;;7.27;100.00;99760.25;10630028;27;20043;-67
2022/12/30 13:18:28;;;;;;;1999.90;999.90;;;;;;;7.20;100.00;99741.53;10626294;27;20155;-66
2022/12/30 13:23:41;;;;;;;1999.90;999.90;;;;;;;7.21;100.00;99725.03;10587397;28;20140;-65
2022/12/30 13:28:52;;;;;;;1999.90;999.90;;;;;;;7.30;100.00;99702.16;10586326;28;20572;-66
2022/12/30 13:34:14;;;;;;;1999.90;999.90;;;;;;;7.35;100.00;99689.78;10586438;28;20074;-64
2022/12/30 13:39:28;;;;;;;1999.90;999.90;;;;;;;7.34;100.00;99682.94;10586442;28;20100;-63
2022/12/30 13:44:35;;;;;;;1999.90;999.90;;;;;;;7.25;100.00;99680.78;10586676;28;20073;-67
2022/12/30 13:49:41;;;;;;;1999.90;999.90;;;;;;;7.09;100.00;99655.56;10583790;28;20047;-66
2022/12/30 13:54:52;;;;;;;1999.90;999.90;;;;;;;7.07;100.00;99660.81;10583861;28;20166;-67
2022/12/30 14:00:24;;;;;;;1999.90;999.90;;;;;;;7.03;100.00;99653.22;10584412;28;20062;-65
2022/12/30 14:05:57;;;;;;;1999.90;999.90;;;;;;;7.09;100.00;99660.75;10584641;28;20129;-66
2022/12/30 14:11:10;;;;;;;1999.90;999.90;;;;;;;7.08;100.00;99666.81;10583039;28;20055;-65
2022/12/30 14:16:46;;;;;;;1999.90;999.90;;;;;;;7.09;100.00;99643.41;10582841;28;20058;-66
2022/12/30 14:21:53;;;;;;;1999.90;999.90;;;;;;;7.16;100.00;99615.44;10579973;28;20568;-66
2022/12/30 14:26:54;;;;;;;1999.90;999.90;;;;;;;7.23;100.00;99644.50;10582068;28;20089;-66
2022/12/30 14:32:00;;;;;;;1999.90;999.90;;;;;;;7.23;100.00;99628.94;10582397;28;20075;-65
2022/12/30 14:37:19;;;;;;;1999.90;999.90;;;;;;;7.28;100.00;99641.69;10582684;28;20070;-66
2022/12/30 14:42:26;;;;;;;1999.90;999.90;;;;;;;7.33;100.00;99650.94;10582065;28;20101;-67
2022/12/30 14:47:40;;;;;;;1999.90;999.90;;;;;;;7.37;100.00;99656.81;10579362;28;20325;-67
2022/12/30 14:52:51;;;;;;;1999.90;999.90;;;;;;;7.38;100.00;99655.06;10581948;28;20108;-65
2022/12/30 14:58:04;;;;;;;1999.90;999.90;;;;;;;7.49;100.00;99654.56;10581636;28;20047;-68
2022/12/30 15:03:16;;;;;;;1999.90;999.90;;;;;;;7.59;100.00;99650.56;10581007;28;20462;-67
2022/12/30 15:08:20;;;;;;;1999.90;999.90;;;;;;;7.69;100.00;99651.81;10580757;28;20053;-67
2022/12/30 15:13:27;;;;;;;1999.90;999.90;;;;;;;7.79;100.00;99656.53;10580593;28;20457;-69
2022/12/30 15:18:36;;;;;;;1999.90;999.90;;;;;;;7.85;100.00;99661.44;10580572;27;20043;-66
2022/12/30 15:23:39;;;;;;;101.65;95.55;;;;;;;7.87;100.00;99657.00;10623328;27;20043;-66
2022/12/30 15:28:41;;;;;;;34.55;32.72;;;;;;;7.93;100.00;99667.09;10622412;27;20039;-68
2022/12/30 15:33:54;;;;;;;27.30;25.92;;;;;;;7.96;100.00;99672.13;10622415;27;20124;-65
2022/12/30 15:39:01;;;;;;;119.93;107.10;;;;;;;8.06;100.00;99684.66;10622762;27;20062;-65
2022/12/30 15:44:07;;;;;;;34.28;32.58;;;;;;;8.10;100.00;99683.56;10615951;27;20043;-68
2022/12/30 15:49:12;;;;;;;133.25;123.90;;;;;;;8.19;100.00;99679.69;10594674;27;20069;-68
2022/12/30 15:54:26;;;;;;;32.35;30.65;;;;;;;8.24;100.00;99693.28;10622128;27;20068;-67
2022/12/30 15:59:36;;;;;;;49.22;45.13;;;;;;;8.33;100.00;99712.75;10620270;27;20072;-64
2022/12/30 16:04:43;;;;;;;31.42;29.83;;;;;;;8.32;100.00;99718.88;10579126;28;20048;-66
2022/12/30 16:09:47;;;;;;;60.47;55.85;;;;;;;8.46;100.00;99723.38;10578642;28;20453;-65
2022/12/30 16:14:58;;;;;;;102.88;95.40;;;;;;;8.59;100.00;99718.41;10578953;28;20039;-67
2022/12/30 16:20:00;;;;;;;43.47;41.38;;;;;;;8.67;100.00;99713.66;10600479;27;20047;-66
2022/12/30 16:25:07;;;;;;;;;;;;;;;8.78;100.00;99738.25;10622108;27;20046;-65
2022/12/30 16:30:17;;;;;;;41.08;39.00;;;;;;;8.89;100.00;99718.56;10620400;27;20436;-66
2022/12/30 16:35:18;;;;;;;80.93;75.93;;;;;;;8.97;100.00;99722.50;10620348;28;20043;-66
2022/12/30 16:40:25;;;;;;;62.72;58.42;;;;;;;9.13;100.00;99722.50;10621482;28;20096;-66
2022/12/30 16:45:27;;;;;;;151.60;138.55;;;;;;;9.33;100.00;99739.66;10620458;28;20072;-65
2022/12/30 16:50:29;;;;;;;57.78;54.80;;;;;;;9.37;100.00;99740.31;10618611;27;20054;-65
2022/12/30 16:55:32;;;;;;;180.82;165.80;;;;;;;9.46;100.00;99739.81;10619837;27;20108;-66
2022/12/30 17:00:34;;;;;;;70.93;65.75;;;;;;;9.58;100.00;99737.47;10618921;27;20051;-68
2022/12/30 17:05:36;;;;;;;196.63;176.52;;;;;;;9.68;100.00;99749.00;10618553;28;20043;-67
2022/12/30 17:10:55;;;;;;;73.40;67.43;;;;;;;9.72;100.00;99766.16;10618761;28;20551;-67
2022/12/30 17:15:58;;;;;;;112.97;102.65;;;;;;;9.71;100.00;99779.28;10618530;28;20039;-67
2022/12/30 17:21:04;;;;;;;70.25;66.28;;;;;;;9.74;100.00;99792.97;10615508;27;20460;-65
2022/12/30 17:26:09;;;;;;;36.33;34.53;;;;;;;9.83;100.00;99809.00;10617912;28;20047;-68
2022/12/30 17:31:17;;;;;;;52.25;49.35;;;;;;;9.91;100.00;99812.03;10622478;27;20055;-66
2022/12/30 17:36:25;;;;;;;105.88;98.47;;;;;;;10.02;100.00;99824.44;10624974;27;20210;-65
2022/12/30 17:41:29;;;;;;;193.18;177.98;;;;;;;10.19;100.00;99831.31;10625326;27;20563;-66
2022/12/30 17:46:33;;;;;;;93.43;88.38;;;;;;;10.28;100.00;99838.63;10625615;27;20051;-68
2022/12/30 17:51:34;;;;;;;33.22;31.67;;;;;;;10.33;100.00;99847.97;10623106;27;20126;-67
2022/12/30 17:56:37;;;;;;;42.90;40.78;;;;;;;10.49;100.00;99860.97;10625274;27;20047;-66
2022/12/30 18:01:39;;;;;;;83.28;76.22;;;;;;;10.56;100.00;99850.09;10624971;27;20059;-65
2022/12/30 18:06:41;;;;;;;62.60;59.28;;;;;;;10.60;100.00;99844.72;10625063;27;20043;-66
2022/12/30 18:11:44;;;;;;;109.38;102.63;;;;;;;10.63;100.00;99881.03;10624260;27;20550;-67
2022/12/30 18:16:45;;;;;;;33.20;31.55;;;;;;;10.75;100.00;99902.97;10624486;27;20099;-66
2022/12/30 18:21:47;;;;;;;44.25;41.80;;;;;;;10.82;100.00;99897.31;10621577;27;20100;-66
2022/12/30 18:26:50;;;;;;;99.53;79.93;;;;;;;11.02;100.00;99897.88;10623880;27;20043;-67
2022/12/30 18:31:52;;;;;;;216.38;197.13;;;;;;;11.19;100.00;99906.50;10623564;27;20047;-66
2022/12/30 18:36:53;;;;;;;44.40;42.10;;;;;;;11.29;100.00;99904.19;10623703;27;20050;-67
2022/12/30 18:41:57;;;;;;;28.98;27.60;;;;;;;11.26;100.00;99899.97;10622769;27;20046;-66
2022/12/30 18:46:59;;;;;;;46.05;43.78;;;;;;;11.45;100.00;99914.53;10623202;27;20051;-67
2022/12/30 18:52:01;;;;;;;28.85;27.23;;;;;;;11.50;100.00;99928.13;10620291;27;20043;-66
2022/12/30 18:57:05;;;;;;;;;;;;;;;11.56;100.00;99917.31;10623312;27;20092;-66
2022/12/30 19:02:07;;;;;;;33.53;30.92;;;;;;;11.54;100.00;99928.81;10622813;27;19965;-67
2022/12/30 19:07:09;;;;;;;44.10;41.85;;;;;;;11.65;100.00;99918.53;10622033;27;20115;-67
2022/12/30 19:12:12;;;;;;;;;;;;;;;11.66;100.00;99916.75;10622210;27;20078;-68
2022/12/30 19:17:13;;;;;;;30.48;28.92;;;;;;;11.54;100.00;99920.97;10620927;27;20214;-68
2022/12/30 19:22:15;;;;;;;35.13;33.35;;;;;;;11.59;100.00;99932.81;10620992;27;20051;-66
2022/12/30 19:27:18;;;;;;;67.32;63.60;;;;;;;11.68;100.00;99935.78;10621024;27;20047;-66
2022/12/30 19:32:20;;;;;;;64.47;60.92;;;;;;;11.69;100.00;99950.53;10621186;27;20487;-66
2022/12/30 19:37:21;;;;;;;80.03;74.05;;;;;;;11.79;100.00;99964.72;10620925;27;20137;-67
2022/12/30 19:42:24;;;;;;;30.63;29.08;;;;;;;11.75;100.00;99965.84;10614489;27;20451;-67
2022/12/30 19:47:28;;;;;;;25.63;24.33;;;;;;;11.77;100.00;99979.66;10618628;27;20558;-66
2022/12/30 19:52:30;;;;;;;25.58;24.38;;;;;;;11.77;100.00;99997.94;10614753;27;20040;-66
2022/12/30 19:57:34;;;;;;;63.20;59.53;;;;;;;11.86;100.00;100004.41;10581890;27;20459;-65
2022/12/30 20:02:36;;;;;;;34.35;32.25;;;;;;;11.85;100.00;100006.16;10620028;27;20077;-65
2022/12/30 20:07:38;;;;;;;;;;;;;;;11.97;100.00;100016.78;10621021;27;20089;-67
2022/12/30 20:12:41;;;;;;;34.70;32.70;;;;;;;12.00;100.00;100007.94;10608689;27;19923;-67
2022/12/30 20:17:43;;;;;;;60.88;57.40;;;;;;;12.09;100.00;100029.16;10594853;27;20060;-67
2022/12/30 20:22:46;;;;;;;25.63;24.42;;;;;;;12.00;100.00;100024.47;10577800;28;20278;-67
2022/12/30 20:27:49;;;;;;;112.50;103.10;;;;;;;12.12;100.00;100049.06;10579207;28;20051;-67
2022/12/30 20:32:51;;;;;;;39.88;37.90;;;;;;;12.21;100.00;100039.78;10578561;28;20141;-65
2022/12/30 20:37:52;;;;;;;35.15;33.47;;;;;;;12.26;100.00;100024.66;10578060;28;20113;-65
2022/12/30 20:42:55;;;;;;;39.05;37.03;;;;;;;12.25;100.00;100016.91;10577906;28;20047;-65
2022/12/30 20:47:57;;;;;;;28.52;27.10;;;;;;;12.27;100.00;100028.94;10576138;28;20054;-65
2022/12/30 20:52:59;;;;;;;77.95;72.88;;;;;;;12.29;100.00;100029.69;10577861;28;20507;-67
2022/12/30 20:58:02;;;;;;;32.38;30.60;;;;;;;12.30;100.00;100031.38;10576935;28;20062;-65
2022/12/30 21:03:05;;;;;;;49.20;46.53;;;;;;;12.33;100.00;100036.41;10577657;28;20073;-65
2022/12/30 21:08:07;;;;;;;27.52;26.23;;;;;;;12.21;100.00;100042.41;10585511;28;20190;-65
2022/12/30 21:13:10;;;;;;;37.75;35.60;;;;;;;12.20;100.00;100051.19;10585698;28;20074;-66
2022/12/30 21:18:12;;;;;;;28.35;26.83;;;;;;;12.18;100.00;100063.53;10583264;28;20048;-66
2022/12/30 21:23:13;;;;;;;37.47;35.60;;;;;;;12.12;100.00;100075.22;10584524;28;20457;-64
2022/12/30 21:28:17;;;;;;;27.52;25.95;;;;;;;12.10;100.00;100083.16;10584659;28;20460;-65
2022/12/30 21:33:18;;;;;;;42.92;40.78;;;;;;;12.15;100.00;100084.63;10585011;28;20108;-65
2022/12/30 22:05:06;;;;;;;88.70;82.93;;;;;;;12.22;100.00;100094.63;10583559;28;20507;-67
2022/12/30 22:10:11;;;;;;;37.70;35.90;;;;;;;12.13;100.00;100110.03;10583906;28;20100;-64
2022/12/30 22:15:18;;;;;;;38.97;36.97;;;;;;;12.01;100.00;100111.59;10582666;28;20124;-66
2022/12/30 22:20:21;;;;;;;31.30;29.75;;;;;;;11.95;100.00;100110.19;10580892;28;20104;-66
2022/12/30 22:25:25;;;;;;;30.85;29.17;;;;;;;11.87;100.00;100112.44;10583354;28;20043;-66
2022/12/30 22:30:29;;;;;;;41.22;39.10;;;;;;;11.99;100.00;100116.91;10582495;28;20047;-65
2022/12/30 22:35:36;;;;;;;41.75;39.42;;;;;;;12.06;100.00;100123.50;10583111;28;20093;-65
2022/12/30 22:40:39;;;;;;;37.42;35.55;;;;;;;12.12;100.00;100126.66;10582169;28;20455;-64
2022/12/30 22:45:43;;;;;;;32.45;30.50;;;;;;;12.15;100.00;100137.78;10582543;28;20073;-66
2022/12/30 22:50:45;;;;;;;24.65;23.52;;;;;;;12.20;100.00;100129.66;10579700;28;20077;-65
2022/12/30 22:55:47;;;;;;;30.83;29.35;;;;;;;12.16;100.00;100133.41;10581737;28;20052;-65
2022/12/30 23:00:50;;;;;;;26.50;25.13;;;;;;;12.14;100.00;100132.66;10581582;28;20093;-63
2022/12/30 23:05:51;;;;;;;58.33;55.30;;;;;;;12.13;100.00;100133.56;10581122;28;20062;-64
2022/12/30 23:10:53;;;;;;;29.25;27.85;;;;;;;12.09;100.00;100127.69;10581091;28;20048;-65
2022/12/30 23:16:07;;;;;;;31.33;29.90;;;;;;;12.01;100.00;100125.50;10581037;28;20043;-65
2022/12/30 23:21:13;;;;;;;37.33;35.47;;;;;;;12.05;100.00;100131.41;10578084;28;20051;-66
2022/12/30 23:26:16;;;;;;;83.22;76.53;;;;;;;11.98;100.00;100126.53;10580254;28;20491;-66
2022/12/30 23:31:19;;;;;;;47.60;43.78;;;;;;;11.99;100.00;100127.38;10580417;28;20044;-64
2022/12/30 23:36:23;;;;;;;44.83;42.65;;;;;;;12.03;100.00;100128.88;10580104;28;20048;-65
2022/12/30 23:41:25;;;;;;;52.38;49.88;;;;;;;12.02;100.00;100140.28;10579628;28;20100;-65
2022/12/30 23:46:28;;;;;;;34.33;32.65;;;;;;;11.99;100.00;100132.59;10579599;28;20047;-66